sensor_id;sensor_type;location;lat;lon;timestamp;pressure;altitude;pressure_sealevel;temperature;humidity
8334;BME280;4204;43.004;23.052;2023-07-20T00:01:08;93542.41;;;22.86;100.00
8334;BME280;4204;43.004;23.052;2023-07-20T00:03:35;93553.53;;;23.02;100.00
8334;BME280;4204;43.004;23.052;2023-07-20T00:06:03;93550.06;;;22.98;100.00
8334;BME280;4204;43.004;23.052;2023-07-20T00:08:33;93552.47;;;22.85;100.00
8334;BME280;4204;43.004;23.052;2023-07-20T00:11:00;93545.91;;;22.79;100.00
8334;BME280;4204;43.004;23.052;2023-07-20T00:13:28;93540.16;;;22.67;100.00
8334;BME280;4204;43.004;23.052;2023-07-20T00:15:56;93545.25;;;22.61;100.00
8334;BME280;4204;43.004;23.052;2023-07-20T00:18:23;93549.88;;;22.61;100.00
8334;BME280;4204;43.004;23.052;2023-07-20T00:20:51;93548.31;;;22.60;100.00
8334;BME280;4204;43.004;23.052;2023-07-20T00:23:19;93539.47;;;22.48;100.00
8334;BME280;4204;43.004;23.052;2023-07-20T00:25:50;93539.94;;;22.26;100.00
8334;BME280;4204;43.004;23.052;2023-07-20T00:28:18;93538.03;;;22.16;100.00
8334;BME280;4204;43.004;23.052;2023-07-20T00:30:45;93546.19;;;22.02;100.00
8334;BME280;4204;43.004;23.052;2023-07-20T00:33:16;93546.22;;;21.88;100.00
8334;BME280;4204;43.004;23.052;2023-07-20T00:35:45;93540.00;;;21.80;100.00
8334;BME280;4204;43.004;23.052;2023-07-20T00:38:12;93556.25;;;21.80;100.00
8334;BME280;4204;43.004;23.052;2023-07-20T00:40:41;93547.75;;;21.71;100.00
8334;BME280;4204;43.004;23.052;2023-07-20T00:43:10;93546.56;;;21.79;100.00
8334;BME280;4204;43.004;23.052;2023-07-20T00:45:38;93540.00;;;21.94;100.00
8334;BME280;4204;43.004;23.052;2023-07-20T00:48:09;93526.81;;;22.10;100.00
8334;BME280;4204;43.004;23.052;2023-07-20T00:50:37;93534.13;;;22.24;100.00
8334;BME280;4204;43.004;23.052;2023-07-20T00:53:08;93526.75;;;22.31;100.00
8334;BME280;4204;43.004;23.052;2023-07-20T00:55:36;93537.66;;;22.10;100.00
8334;BME280;4204;43.004;23.052;2023-07-20T00:58:04;93529.56;;;21.96;100.00
8334;BME280;4204;43.004;23.052;2023-07-20T01:00:36;93528.81;;;21.92;100.00
8334;BME280;4204;43.004;23.052;2023-07-20T01:03:04;93537.69;;;21.75;100.00
8334;BME280;4204;43.004;23.052;2023-07-20T01:05:38;93533.06;;;21.54;100.00
8334;BME280;4204;43.004;23.052;2023-07-20T01:08:13;93539.25;;;21.55;100.00
8334;BME280;4204;43.004;23.052;2023-07-20T01:10:46;93540.81;;;21.63;100.00
8334;BME280;4204;43.004;23.052;2023-07-20T01:13:18;93543.13;;;21.61;100.00
8334;BME280;4204;43.004;23.052;2023-07-20T01:15:50;93540.03;;;21.52;100.00
8334;BME280;4204;43.004;23.052;2023-07-20T01:18:21;93541.59;;;21.32;100.00
8334;BME280;4204;43.004;23.052;2023-07-20T01:20:48;93539.66;;;21.29;100.00
8334;BME280;4204;43.004;23.052;2023-07-20T01:23:31;93539.66;;;21.29;100.00
8334;BME280;4204;43.004;23.052;2023-07-20T01:26:21;93533.47;;;21.18;100.00
8334;BME280;4204;43.004;23.052;2023-07-20T01:29:17;93535.34;;;21.00;100.00
8334;BME280;4204;43.004;23.052;2023-07-20T01:31:51;93536.13;;;20.96;100.00
8334;BME280;4204;43.004;23.052;2023-07-20T01:34:22;93536.94;;;21.22;100.00
8334;BME280;4204;43.004;23.052;2023-07-20T01:36:52;93532.69;;;21.42;100.00
8334;BME280;4204;43.004;23.052;2023-07-20T01:39:21;93534.63;;;21.45;100.00
8334;BME280;4204;43.004;23.052;2023-07-20T01:41:49;93535.41;;;21.49;100.00
8334;BME280;4204;43.004;23.052;2023-07-20T01:44:17;93536.94;;;21.36;100.00
8334;BME280;4204;43.004;23.052;2023-07-20T01:46:44;93531.94;;;21.20;100.00
8334;BME280;4204;43.004;23.052;2023-07-20T01:49:13;93536.19;;;21.28;100.00
8334;BME280;4204;43.004;23.052;2023-07-20T01:51:41;93523.81;;;21.31;100.00
8334;BME280;4204;43.004;23.052;2023-07-20T01:54:09;93537.72;;;21.47;100.00
8334;BME280;4204;43.004;23.052;2023-07-20T01:56:37;93529.59;;;21.50;100.00
8334;BME280;4204;43.004;23.052;2023-07-20T01:59:05;93532.31;;;21.29;100.00
8334;BME280;4204;43.004;23.052;2023-07-20T02:01:33;93521.50;;;21.26;100.00
8334;BME280;4204;43.004;23.052;2023-07-20T02:04:01;93526.13;;;21.29;100.00
8334;BME280;4204;43.004;23.052;2023-07-20T02:06:30;93514.53;;;21.07;100.00
8334;BME280;4204;43.004;23.052;2023-07-20T02:08:58;93507.88;;;20.62;100.00
8334;BME280;4204;43.004;23.052;2023-07-20T02:11:25;93510.91;;;20.43;100.00
8334;BME280;4204;43.004;23.052;2023-07-20T02:13:53;93511.56;;;20.19;100.00
8334;BME280;4204;43.004;23.052;2023-07-20T02:16:21;93512.28;;;20.09;100.00
8334;BME280;4204;43.004;23.052;2023-07-20T02:18:48;93499.94;;;20.08;100.00
8334;BME280;4204;43.004;23.052;2023-07-20T02:21:16;93513.03;;;20.09;100.00
8334;BME280;4204;43.004;23.052;2023-07-20T02:23:45;93508.47;;;20.17;100.00
8334;BME280;4204;43.004;23.052;2023-07-20T02:26:13;93505.72;;;20.13;100.00
8334;BME280;4204;43.004;23.052;2023-07-20T02:28:41;93491.78;;;20.01;100.00
8334;BME280;4204;43.004;23.052;2023-07-20T02:31:08;93494.41;;;19.83;100.00
8334;BME280;4204;43.004;23.052;2023-07-20T02:33:36;93498.91;;;19.58;100.00
8334;BME280;4204;43.004;23.052;2023-07-20T02:36:04;93506.91;;;19.44;100.00
8334;BME280;4204;43.004;23.052;2023-07-20T02:38:32;93496.53;;;19.50;100.00
8334;BME280;4204;43.004;23.052;2023-07-20T02:41:01;93506.28;;;19.68;100.00
8334;BME280;4204;43.004;23.052;2023-07-20T02:43:29;93502.81;;;19.68;100.00
8334;BME280;4204;43.004;23.052;2023-07-20T02:45:56;93502.91;;;19.82;100.00
8334;BME280;4204;43.004;23.052;2023-07-20T02:48:24;93508.03;;;20.08;100.00
8334;BME280;4204;43.004;23.052;2023-07-20T02:50:51;93513.94;;;20.28;100.00
8334;BME280;4204;43.004;23.052;2023-07-20T02:53:19;93508.16;;;20.29;100.00
8334;BME280;4204;43.004;23.052;2023-07-20T02:55:47;93516.66;;;20.31;100.00
8334;BME280;4204;43.004;23.052;2023-07-20T02:58:16;93517.03;;;20.33;100.00
8334;BME280;4204;43.004;23.052;2023-07-20T03:00:44;93512.69;;;20.18;100.00
8334;BME280;4204;43.004;23.052;2023-07-20T03:03:11;93507.28;;;20.14;100.00
8334;BME280;4204;43.004;23.052;2023-07-20T03:05:40;93502.72;;;20.22;100.00
8334;BME280;4204;43.004;23.052;2023-07-20T03:08:08;93494.88;;;20.03;100.00
8334;BME280;4204;43.004;23.052;2023-07-20T03:10:38;93504.16;;;20.02;100.00
8334;BME280;4204;43.004;23.052;2023-07-20T03:13:06;93500.22;;;19.89;100.00
8334;BME280;4204;43.004;23.052;2023-07-20T03:15:36;93512.25;;;20.02;100.00
8334;BME280;4204;43.004;23.052;2023-07-20T03:18:03;93503.81;;;20.07;100.00
8334;BME280;4204;43.004;23.052;2023-07-20T03:20:31;93508.78;;;20.05;100.00
8334;BME280;4204;43.004;23.052;2023-07-20T03:22:59;93506.91;;;20.12;100.00
8334;BME280;4204;43.004;23.052;2023-07-20T03:25:26;93497.25;;;20.11;100.00
8334;BME280;4204;43.004;23.052;2023-07-20T03:27:54;93514.44;;;19.79;100.00
8334;BME280;4204;43.004;23.052;2023-07-20T03:30:22;93514.75;;;19.67;100.00
8334;BME280;4204;43.004;23.052;2023-07-20T03:32:51;93515.16;;;19.69;100.00
8334;BME280;4204;43.004;23.052;2023-07-20T03:35:18;93506.13;;;19.47;100.00
8334;BME280;4204;43.004;23.052;2023-07-20T03:37:46;93510.06;;;19.57;100.00
8334;BME280;4204;43.004;23.052;2023-07-20T03:40:14;93507.47;;;19.71;100.00
8334;BME280;4204;43.004;23.052;2023-07-20T03:42:42;93511.41;;;19.84;100.00
8334;BME280;4204;43.004;23.052;2023-07-20T03:45:10;93511.09;;;20.03;100.00
8334;BME280;4204;43.004;23.052;2023-07-20T03:47:37;93514.25;;;20.19;100.00
8334;BME280;4204;43.004;23.052;2023-07-20T03:50:08;93520.13;;;20.39;100.00
8334;BME280;4204;43.004;23.052;2023-07-20T03:52:36;93515.88;;;20.31;100.00
8334;BME280;4204;43.004;23.052;2023-07-20T03:55:05;93513.97;;;20.38;100.00
8334;BME280;4204;43.004;23.052;2023-07-20T03:57:32;93506.91;;;20.09;100.00
8334;BME280;4204;43.004;23.052;2023-07-20T04:00:00;93510.38;;;20.13;100.00
8334;BME280;4204;43.004;23.052;2023-07-20T04:02:28;93509.59;;;20.16;100.00
8334;BME280;4204;43.004;23.052;2023-07-20T04:04:56;93499.16;;;20.04;100.00
8334;BME280;4204;43.004;23.052;2023-07-20T04:07:25;93494.53;;;20.08;100.00
8334;BME280;4204;43.004;23.052;2023-07-20T04:09:52;93494.94;;;20.13;100.00
8334;BME280;4204;43.004;23.052;2023-07-20T04:12:20;93484.59;;;20.26;100.00
8334;BME280;4204;43.004;23.052;2023-07-20T04:14:48;93477.69;;;20.39;100.00
8334;BME280;4204;43.004;23.052;2023-07-20T04:17:15;93471.94;;;20.48;100.00
8334;BME280;4204;43.004;23.052;2023-07-20T04:19:43;93470.75;;;20.42;100.00
8334;BME280;4204;43.004;23.052;2023-07-20T04:22:11;93480.03;;;20.44;100.00
8334;BME280;4204;43.004;23.052;2023-07-20T04:24:43;93486.19;;;20.41;100.00
8334;BME280;4204;43.004;23.052;2023-07-20T04:27:11;93474.56;;;20.23;100.00
8334;BME280;4204;43.004;23.052;2023-07-20T04:29:39;93464.09;;;20.14;100.00
8334;BME280;4204;43.004;23.052;2023-07-20T04:32:07;93461.38;;;20.14;100.00
8334;BME280;4204;43.004;23.052;2023-07-20T04:34:36;93462.59;;;20.21;100.00
8334;BME280;4204;43.004;23.052;2023-07-20T04:37:05;93463.69;;;20.16;100.00
8334;BME280;4204;43.004;23.052;2023-07-20T04:39:33;93470.66;;;20.17;100.00
8334;BME280;4204;43.004;23.052;2023-07-20T04:42:07;93471.13;;;20.33;100.00
8334;BME280;4204;43.004;23.052;2023-07-20T04:44:35;93482.34;;;20.46;100.00
8334;BME280;4204;43.004;23.052;2023-07-20T04:47:03;93485.06;;;20.49;100.00
8334;BME280;4204;43.004;23.052;2023-07-20T04:49:35;93469.97;;;20.45;100.00
8334;BME280;4204;43.004;23.052;2023-07-20T04:52:03;93473.88;;;20.54;100.00
8334;BME280;4204;43.004;23.052;2023-07-20T04:54:32;93480.44;;;20.53;100.00
8334;BME280;4204;43.004;23.052;2023-07-20T04:56:59;93487.00;;;20.56;100.00
8334;BME280;4204;43.004;23.052;2023-07-20T04:59:29;93487.03;;;20.70;100.00
8334;BME280;4204;43.004;23.052;2023-07-20T05:01:57;93488.19;;;20.72;100.00
8334;BME280;4204;43.004;23.052;2023-07-20T05:04:24;93494.78;;;20.78;100.00
8334;BME280;4204;43.004;23.052;2023-07-20T05:06:52;93493.97;;;20.78;100.00
8334;BME280;4204;43.004;23.052;2023-07-20T05:09:20;93483.19;;;20.85;100.00
8334;BME280;4204;43.004;23.052;2023-07-20T05:11:48;93485.91;;;20.88;100.00
8334;BME280;4204;43.004;23.052;2023-07-20T05:14:17;93507.53;;;20.95;100.00
8334;BME280;4204;43.004;23.052;2023-07-20T05:16:47;93504.09;;;21.09;100.00
8334;BME280;4204;43.004;23.052;2023-07-20T05:19:15;93520.31;;;21.13;100.00
8334;BME280;4204;43.004;23.052;2023-07-20T05:21:43;93523.41;;;21.22;100.00
8334;BME280;4204;43.004;23.052;2023-07-20T05:24:11;93529.59;;;21.26;100.00
8334;BME280;4204;43.004;23.052;2023-07-20T05:26:38;93523.44;;;21.29;100.00
8334;BME280;4204;43.004;23.052;2023-07-20T05:29:06;93523.81;;;21.34;100.00
8334;BME280;4204;43.004;23.052;2023-07-20T05:31:34;93520.72;;;21.39;100.00
8334;BME280;4204;43.004;23.052;2023-07-20T05:34:03;93525.34;;;21.56;100.00
8334;BME280;4204;43.004;23.052;2023-07-20T05:36:30;93518.75;;;21.64;100.00
8334;BME280;4204;43.004;23.052;2023-07-20T05:38:58;93522.22;;;21.79;100.00
8334;BME280;4204;43.004;23.052;2023-07-20T05:41:26;93512.56;;;21.89;100.00
8334;BME280;4204;43.004;23.052;2023-07-20T05:43:53;93517.19;;;21.99;100.00
8334;BME280;4204;43.004;23.052;2023-07-20T05:46:21;93517.16;;;22.06;100.00
8334;BME280;4204;43.004;23.052;2023-07-20T05:48:50;93527.97;;;22.06;100.00
8334;BME280;4204;43.004;23.052;2023-07-20T05:51:19;93520.56;;;22.20;100.00
8334;BME280;4204;43.004;23.052;2023-07-20T05:53:47;93514.41;;;22.16;100.00
8334;BME280;4204;43.004;23.052;2023-07-20T05:56:15;93510.19;;;22.12;100.00
8334;BME280;4204;43.004;23.052;2023-07-20T05:58:43;93498.53;;;22.22;100.00
8334;BME280;4204;43.004;23.052;2023-07-20T06:01:10;93512.03;;;22.36;100.00
8334;BME280;4204;43.004;23.052;2023-07-20T06:03:38;93505.81;;;22.42;100.00
8334;BME280;4204;43.004;23.052;2023-07-20T06:06:06;93508.09;;;22.47;100.00
8334;BME280;4204;43.004;23.052;2023-07-20T06:08:36;93504.19;;;22.59;100.00
8334;BME280;4204;43.004;23.052;2023-07-20T06:11:04;93499.84;;;22.72;100.00
8334;BME280;4204;43.004;23.052;2023-07-20T06:13:32;93506.72;;;22.94;100.00
8334;BME280;4204;43.004;23.052;2023-07-20T06:16:00;93509.28;;;23.12;100.00
8334;BME280;4204;43.004;23.052;2023-07-20T06:18:28;93513.50;;;23.20;100.00
8334;BME280;4204;43.004;23.052;2023-07-20T06:20:56;93527.81;;;23.24;100.00
8334;BME280;4204;43.004;23.052;2023-07-20T06:23:25;93516.88;;;23.38;100.00
8334;BME280;4204;43.004;23.052;2023-07-20T06:25:54;93518.66;;;23.59;100.00
8334;BME280;4204;43.004;23.052;2023-07-20T06:28:22;93509.00;;;23.54;100.00
8334;BME280;4204;43.004;23.052;2023-07-20T06:30:49;93509.69;;;23.62;100.00
8334;BME280;4204;43.004;23.052;2023-07-20T06:33:17;93509.16;;;23.77;100.00
8334;BME280;4204;43.004;23.052;2023-07-20T06:35:46;93521.06;;;23.90;100.00
8334;BME280;4204;43.004;23.052;2023-07-20T06:38:14;93526.06;;;23.95;100.00
8334;BME280;4204;43.004;23.052;2023-07-20T06:40:42;93529.13;;;23.97;100.00
8334;BME280;4204;43.004;23.052;2023-07-20T06:43:11;93531.75;;;24.12;100.00
8334;BME280;4204;43.004;23.052;2023-07-20T06:45:39;93534.75;;;24.21;100.00
8334;BME280;4204;43.004;23.052;2023-07-20T06:48:06;93542.78;;;24.31;100.00
8334;BME280;4204;43.004;23.052;2023-07-20T06:50:34;93554.00;;;24.37;100.00
8334;BME280;4204;43.004;23.052;2023-07-20T06:53:02;93564.00;;;24.43;100.00
8334;BME280;4204;43.004;23.052;2023-07-20T06:55:30;93576.66;;;24.57;100.00
8334;BME280;4204;43.004;23.052;2023-07-20T06:57:58;93579.31;;;24.64;100.00
8334;BME280;4204;43.004;23.052;2023-07-20T07:00:27;93575.25;;;24.79;100.00
8334;BME280;4204;43.004;23.052;2023-07-20T07:02:55;93580.75;;;24.75;100.00
8334;BME280;4204;43.004;23.052;2023-07-20T07:05:23;93588.41;;;24.84;100.00
8334;BME280;4204;43.004;23.052;2023-07-20T07:07:51;93594.53;;;24.92;100.00
8334;BME280;4204;43.004;23.052;2023-07-20T07:10:19;93604.13;;;25.03;100.00
8334;BME280;4204;43.004;23.052;2023-07-20T07:12:46;93611.38;;;25.13;100.00
8334;BME280;4204;43.004;23.052;2023-07-20T07:15:14;93618.97;;;25.25;100.00
8334;BME280;4204;43.004;23.052;2023-07-20T07:17:43;93635.22;;;25.32;100.00
8334;BME280;4204;43.004;23.052;2023-07-20T07:20:11;93658.44;;;25.40;100.00
8334;BME280;4204;43.004;23.052;2023-07-20T07:22:39;93652.28;;;25.36;100.00
8334;BME280;4204;43.004;23.052;2023-07-20T07:25:10;93661.94;;;25.44;100.00
8334;BME280;4204;43.004;23.052;2023-07-20T07:27:38;93649.69;;;25.56;100.00
8334;BME280;4204;43.004;23.052;2023-07-20T07:30:07;93666.25;;;25.38;100.00
8334;BME280;4204;43.004;23.052;2023-07-20T07:32:38;93646.88;;;25.03;100.00
8334;BME280;4204;43.004;23.052;2023-07-20T07:35:07;93636.59;;;24.87;100.00
8334;BME280;4204;43.004;23.052;2023-07-20T07:37:35;93624.41;;;24.61;100.00
8334;BME280;4204;43.004;23.052;2023-07-20T07:40:04;93597.56;;;24.63;100.00
8334;BME280;4204;43.004;23.052;2023-07-20T07:42:32;93616.88;;;24.76;100.00
8334;BME280;4204;43.004;23.052;2023-07-20T07:45:00;93625.25;;;24.92;100.00
8334;BME280;4204;43.004;23.052;2023-07-20T07:47:28;93640.28;;;25.04;100.00
8334;BME280;4204;43.004;23.052;2023-07-20T07:49:57;93637.22;;;24.98;100.00
8334;BME280;4204;43.004;23.052;2023-07-20T07:52:26;93641.25;;;25.17;100.00
8334;BME280;4204;43.004;23.052;2023-07-20T07:54:54;93626.38;;;25.25;100.00
8334;BME280;4204;43.004;23.052;2023-07-20T07:57:21;93642.34;;;25.23;100.00
8334;BME280;4204;43.004;23.052;2023-07-20T07:59:49;93644.25;;;25.26;100.00
8334;BME280;4204;43.004;23.052;2023-07-20T08:02:17;93632.38;;;25.39;100.00
8334;BME280;4204;43.004;23.052;2023-07-20T08:04:45;93627.25;;;25.48;100.00
8334;BME280;4204;43.004;23.052;2023-07-20T08:07:13;93610.06;;;25.51;100.00
8334;BME280;4204;43.004;23.052;2023-07-20T08:09:42;93619.94;;;25.68;100.00
8334;BME280;4204;43.004;23.052;2023-07-20T08:12:10;93613.50;;;25.82;100.00
8334;BME280;4204;43.004;23.052;2023-07-20T08:14:38;93619.34;;;25.81;100.00
8334;BME280;4204;43.004;23.052;2023-07-20T08:17:05;93616.44;;;25.95;100.00
8334;BME280;4204;43.004;23.052;2023-07-20T08:19:33;93604.94;;;26.07;100.00
8334;BME280;4204;43.004;23.052;2023-07-20T08:22:01;93607.00;;;26.22;100.00
8334;BME280;4204;43.004;23.052;2023-07-20T08:24:29;93590.22;;;26.24;100.00
8334;BME280;4204;43.004;23.052;2023-07-20T08:26:58;93592.75;;;26.34;100.00
8334;BME280;4204;43.004;23.052;2023-07-20T08:29:26;93581.66;;;26.45;100.00
8334;BME280;4204;43.004;23.052;2023-07-20T08:31:54;93572.03;;;26.60;100.00
8334;BME280;4204;43.004;23.052;2023-07-20T08:34:21;93570.59;;;26.75;100.00
8334;BME280;4204;43.004;23.052;2023-07-20T08:36:49;93571.19;;;26.83;100.00
8334;BME280;4204;43.004;23.052;2023-07-20T08:39:17;93572.47;;;26.98;100.00
8334;BME280;4204;43.004;23.052;2023-07-20T08:41:46;93560.31;;;27.18;100.00
8334;BME280;4204;43.004;23.052;2023-07-20T08:44:15;93575.34;;;27.27;100.00
8334;BME280;4204;43.004;23.052;2023-07-20T08:46:43;93552.63;;;27.30;100.00
8334;BME280;4204;43.004;23.052;2023-07-20T08:49:15;93548.66;;;27.50;100.00
8334;BME280;4204;43.004;23.052;2023-07-20T08:51:45;93556.63;;;27.61;100.00
8334;BME280;4204;43.004;23.052;2023-07-20T08:54:14;93574.72;;;27.55;100.00
8334;BME280;4204;43.004;23.052;2023-07-20T08:56:45;93571.13;;;27.42;100.00
8334;BME280;4204;43.004;23.052;2023-07-20T08:59:17;93581.06;;;27.52;100.00
8334;BME280;4204;43.004;23.052;2023-07-20T09:01:46;93577.53;;;27.51;100.00
8334;BME280;4204;43.004;23.052;2023-07-20T09:04:14;93568.75;;;27.60;100.00
8334;BME280;4204;43.004;23.052;2023-07-20T09:06:42;93556.28;;;27.59;100.00
8334;BME280;4204;43.004;23.052;2023-07-20T09:09:10;93556.97;;;27.63;100.00
8334;BME280;4204;43.004;23.052;2023-07-20T09:11:38;93551.84;;;27.65;100.00
8334;BME280;4204;43.004;23.052;2023-07-20T09:14:07;93551.44;;;27.66;100.00
8334;BME280;4204;43.004;23.052;2023-07-20T09:16:48;93562.38;;;27.66;100.00
8334;BME280;4204;43.004;23.052;2023-07-20T09:19:17;93569.00;;;27.49;100.00
8334;BME280;4204;43.004;23.052;2023-07-20T09:21:45;93562.50;;;27.43;100.00
8334;BME280;4204;43.004;23.052;2023-07-20T09:24:14;93564.22;;;27.53;100.00
8334;BME280;4204;43.004;23.052;2023-07-20T09:26:43;93563.53;;;27.49;100.00
8334;BME280;4204;43.004;23.052;2023-07-20T09:29:11;93557.44;;;27.42;100.00
8334;BME280;4204;43.004;23.052;2023-07-20T09:31:39;93549.84;;;27.33;100.00
8334;BME280;4204;43.004;23.052;2023-07-20T09:34:13;93527.31;;;27.29;100.00
8334;BME280;4204;43.004;23.052;2023-07-20T09:36:41;93505.47;;;27.29;100.00
8334;BME280;4204;43.004;23.052;2023-07-20T09:39:09;93501.59;;;27.27;100.00
8334;BME280;4204;43.004;23.052;2023-07-20T09:41:42;93511.78;;;27.42;100.00
8334;BME280;4204;43.004;23.052;2023-07-20T09:44:10;93507.25;;;27.36;100.00
8334;BME280;4204;43.004;23.052;2023-07-20T09:46:44;93516.28;;;27.33;100.00
8334;BME280;4204;43.004;23.052;2023-07-20T09:49:14;93517.06;;;27.33;100.00
8334;BME280;4204;43.004;23.052;2023-07-20T09:51:44;93519.41;;;27.35;100.00
8334;BME280;4204;43.004;23.052;2023-07-20T09:54:13;93519.09;;;27.29;100.00
8334;BME280;4204;43.004;23.052;2023-07-20T09:56:42;93517.13;;;27.30;100.00
8334;BME280;4204;43.004;23.052;2023-07-20T09:59:11;93521.16;;;27.25;100.00
8334;BME280;4204;43.004;23.052;2023-07-20T10:01:41;93525.50;;;27.22;100.00
8334;BME280;4204;43.004;23.052;2023-07-20T10:04:11;93526.63;;;27.25;100.00
8334;BME280;4204;43.004;23.052;2023-07-20T10:06:42;93537.47;;;27.29;100.00
8334;BME280;4204;43.004;23.052;2023-07-20T10:09:12;93541.38;;;27.27;100.00
8334;BME280;4204;43.004;23.052;2023-07-20T10:11:49;93536.59;;;27.32;100.00
8334;BME280;4204;43.004;23.052;2023-07-20T10:14:20;93543.69;;;27.29;100.00
8334;BME280;4204;43.004;23.052;2023-07-20T10:16:50;93540.47;;;27.34;100.00
8334;BME280;4204;43.004;23.052;2023-07-20T10:19:23;93534.16;;;27.37;100.00
8334;BME280;4204;43.004;23.052;2023-07-20T10:21:57;93537.66;;;27.38;100.00
8334;BME280;4204;43.004;23.052;2023-07-20T10:24:28;93521.06;;;27.29;100.00
8334;BME280;4204;43.004;23.052;2023-07-20T10:26:56;93522.25;;;27.27;100.00
8334;BME280;4204;43.004;23.052;2023-07-20T10:29:24;93507.28;;;27.52;100.00
8334;BME280;4204;43.004;23.052;2023-07-20T10:31:54;93500.78;;;27.62;100.00
8334;BME280;4204;43.004;23.052;2023-07-20T10:34:22;93498.97;;;27.71;100.00
8334;BME280;4204;43.004;23.052;2023-07-20T10:36:52;93491.22;;;27.70;100.00
8334;BME280;4204;43.004;23.052;2023-07-20T10:39:24;93497.09;;;27.84;100.00
8334;BME280;4204;43.004;23.052;2023-07-20T10:42:00;93487.28;;;27.87;100.00
8334;BME280;4204;43.004;23.052;2023-07-20T10:44:29;93493.75;;;27.93;100.00
8334;BME280;4204;43.004;23.052;2023-07-20T10:47:02;93492.91;;;27.96;100.00
8334;BME280;4204;43.004;23.052;2023-07-20T10:49:38;93494.47;;;27.81;100.00
8334;BME280;4204;43.004;23.052;2023-07-20T10:52:25;93491.88;;;27.90;100.00
8334;BME280;4204;43.004;23.052;2023-07-20T10:54:55;93489.31;;;27.99;100.00
8334;BME280;4204;43.004;23.052;2023-07-20T10:57:30;93496.72;;;28.15;100.00
8334;BME280;4204;43.004;23.052;2023-07-20T11:00:12;93495.94;;;28.14;100.00
8334;BME280;4204;43.004;23.052;2023-07-20T11:02:46;93491.69;;;28.13;100.00
8334;BME280;4204;43.004;23.052;2023-07-20T11:05:33;93487.44;;;28.25;100.00
8334;BME280;4204;43.004;23.052;2023-07-20T11:08:06;93480.78;;;28.26;100.00
8334;BME280;4204;43.004;23.052;2023-07-20T11:10:37;93471.28;;;28.30;100.00
8334;BME280;4204;43.004;23.052;2023-07-20T11:13:21;93467.19;;;28.51;100.00
8334;BME280;4204;43.004;23.052;2023-07-20T11:16:02;93468.25;;;28.69;100.00
8334;BME280;4204;43.004;23.052;2023-07-20T11:18:35;93472.75;;;28.76;100.00
8334;BME280;4204;43.004;23.052;2023-07-20T11:21:09;93462.56;;;28.89;100.00
8334;BME280;4204;43.004;23.052;2023-07-20T11:23:43;93465.41;;;28.98;100.00
8334;BME280;4204;43.004;23.052;2023-07-20T11:26:13;93467.81;;;28.84;100.00
8334;BME280;4204;43.004;23.052;2023-07-20T11:28:42;93472.84;;;28.98;100.00
8334;BME280;4204;43.004;23.052;2023-07-20T11:31:13;93470.34;;;29.03;100.00
8334;BME280;4204;43.004;23.052;2023-07-20T11:33:42;93466.19;;;28.99;100.00
8334;BME280;4204;43.004;23.052;2023-07-20T11:36:10;93464.84;;;29.03;100.00
8334;BME280;4204;43.004;23.052;2023-07-20T11:38:42;93464.78;;;29.32;100.00
8334;BME280;4204;43.004;23.052;2023-07-20T11:41:10;93458.88;;;29.33;100.00
8334;BME280;4204;43.004;23.052;2023-07-20T11:43:40;93458.84;;;29.46;100.00
8334;BME280;4204;43.004;23.052;2023-07-20T11:46:09;93451.94;;;29.54;100.00
8334;BME280;4204;43.004;23.052;2023-07-20T11:48:36;93446.63;;;29.72;100.00
8334;BME280;4204;43.004;23.052;2023-07-20T11:51:06;93448.38;;;29.79;100.00
8334;BME280;4204;43.004;23.052;2023-07-20T11:53:43;93448.53;;;29.75;100.00
8334;BME280;4204;43.004;23.052;2023-07-20T11:56:12;93445.19;;;29.80;100.00
8334;BME280;4204;43.004;23.052;2023-07-20T11:58:43;93440.41;;;30.06;100.00
8334;BME280;4204;43.004;23.052;2023-07-20T12:01:12;93430.75;;;30.01;100.00
8334;BME280;4204;43.004;23.052;2023-07-20T12:03:42;93449.41;;;30.28;100.00
8334;BME280;4204;43.004;23.052;2023-07-20T12:06:11;93434.13;;;30.40;100.00
8334;BME280;4204;43.004;23.052;2023-07-20T12:08:39;93417.56;;;30.52;100.00
8334;BME280;4204;43.004;23.052;2023-07-20T12:11:09;93420.84;;;30.69;100.00
8334;BME280;4204;43.004;23.052;2023-07-20T12:13:39;93420.34;;;30.83;100.00
8334;BME280;4204;43.004;23.052;2023-07-20T12:16:11;93417.78;;;30.88;100.00
8334;BME280;4204;43.004;23.052;2023-07-20T12:18:41;93422.47;;;30.79;100.00
8334;BME280;4204;43.004;23.052;2023-07-20T12:21:09;93420.44;;;30.70;100.00
8334;BME280;4204;43.004;23.052;2023-07-20T12:23:38;93423.91;;;30.71;100.00
8334;BME280;4204;43.004;23.052;2023-07-20T12:26:08;93412.53;;;30.81;100.00
8334;BME280;4204;43.004;23.052;2023-07-20T12:28:40;93411.47;;;30.79;100.00
8334;BME280;4204;43.004;23.052;2023-07-20T12:31:09;93401.06;;;30.74;100.00
8334;BME280;4204;43.004;23.052;2023-07-20T12:33:37;93409.25;;;30.65;100.00
8334;BME280;4204;43.004;23.052;2023-07-20T12:36:05;93412.19;;;30.70;100.00
8334;BME280;4204;43.004;23.052;2023-07-20T12:38:33;93403.41;;;30.84;100.00
8334;BME280;4204;43.004;23.052;2023-07-20T12:41:01;93395.38;;;30.90;100.00
8334;BME280;4204;43.004;23.052;2023-07-20T12:43:30;93396.66;;;31.07;100.00
8334;BME280;4204;43.004;23.052;2023-07-20T12:45:59;93407.06;;;31.12;100.00
8334;BME280;4204;43.004;23.052;2023-07-20T12:48:27;93403.91;;;30.92;100.00
8334;BME280;4204;43.004;23.052;2023-07-20T12:50:55;93406.72;;;31.01;100.00
8334;BME280;4204;43.004;23.052;2023-07-20T12:53:23;93410.28;;;31.20;100.00
8334;BME280;4204;43.004;23.052;2023-07-20T12:55:51;93401.56;;;31.21;100.00
8334;BME280;4204;43.004;23.052;2023-07-20T12:58:19;93405.88;;;31.22;100.00
8334;BME280;4204;43.004;23.052;2023-07-20T13:00:48;93400.81;;;31.21;100.00
8334;BME280;4204;43.004;23.052;2023-07-20T13:03:17;93398.06;;;31.21;100.00
8334;BME280;4204;43.004;23.052;2023-07-20T13:05:45;93409.34;;;31.23;100.00
8334;BME280;4204;43.004;23.052;2023-07-20T13:08:14;93409.66;;;31.25;100.00
8334;BME280;4204;43.004;23.052;2023-07-20T13:10:41;93396.53;;;31.20;100.00